Bandeirantes, Brazil
Current Conditions -  °F | °C
As of 8:00 AM on Thursday 29 Jan 2015 (Local Time) from SBLO Reporting Station
Drizzle Drizzle  
Wind Chill: 72°   Ceiling: 200
Heat Index: 72°   Visibility: 0.31mi
Dew Point: 72°   Wind: 5mph
Humidity: 100%   Direction: 70°ENE
Pressure: 30"   Gusts: NA
Location:  23.11°S, 50.37°W
Report Text: SBLO 291000Z 07004KT 0500 DZ FG OVC002 22/22 Q1016
Loading
Personal Weather Stations






























Interactive Weather Map New forecast layout! Learn more

10-Day Weather Forecast

Advertisements
Track Severe Weather on mobile